Observations for LEVALDIGI, Italy (LIMZ)

LIMZ 091950Z 27008KT CAVOK 10/M03 Q1013 
LIMZ 091850Z 24009KT CAVOK 07/M02 Q1012 
LIMZ 091750Z VRB02KT CAVOK 07/M02 Q1012 
LIMZ 091650Z 33006KT CAVOK 09/M03 Q1011 
LIMZ 091450Z 34011KT CAVOK 14/M04 Q1010 
LIMZ 091350Z 31007G18KT CAVOK 16/M04 Q1009  
LIMZ 091250Z 01007KT CAVOK 16/01 Q1008  
LIMZ 091150Z 34004KT CAVOK 16/M00 Q1008 
LIMZ 091050Z 32004KT CAVOK 15/M02 Q1007 
LIMZ 090950Z 02006KT CAVOK 12/00 Q1008  
LIMZ 090850Z 31005KT CAVOK 12/M02 Q1007 
LIMZ 090750Z 24009KT CAVOK 12/M01 Q1006 
LIMZ 090650Z 24013KT CAVOK 12/M03 Q1006 
LIMZ 090600Z 23012KT CAVOK 11/M03 Q1007